sensor_id;sensor_type;location;lat;lon;timestamp;pressure;altitude;pressure_sealevel;temperature;humidity
24302;BME280;12421;49.732;20.078;2023-04-09T00:00:41;97418.42;;;4.38;80.18
24302;BME280;12421;49.732;20.078;2023-04-09T00:11:04;97415.71;;;4.17;80.97
24302;BME280;12421;49.732;20.078;2023-04-09T00:21:08;97414.85;;;4.26;81.24
24302;BME280;12421;49.732;20.078;2023-04-09T00:31:44;97417.77;;;4.24;81.21
24302;BME280;12421;49.732;20.078;2023-04-09T00:41:47;97423.61;;;4.14;81.51
24302;BME280;12421;49.732;20.078;2023-04-09T00:51:51;97420.47;;;4.20;81.52
24302;BME280;12421;49.732;20.078;2023-04-09T01:02:37;97425.22;;;4.23;81.31
24302;BME280;12421;49.732;20.078;2023-04-09T01:36:30;97423.15;;;4.32;80.94
24302;BME280;12421;49.732;20.078;2023-04-09T03:29:34;97417.27;;;4.42;80.96
24302;BME280;12421;49.732;20.078;2023-04-09T06:42:51;97497.83;;;6.69;78.12
24302;BME280;12421;49.732;20.078;2023-04-09T06:54:13;97502.21;;;6.98;77.52
24302;BME280;12421;49.732;20.078;2023-04-09T07:27:38;97519.73;;;7.65;75.16
24302;BME280;12421;49.732;20.078;2023-04-09T08:01:00;97521.30;;;8.73;73.67
24302;BME280;12421;49.732;20.078;2023-04-09T09:07:55;97508.56;;;11.88;66.17
24302;BME280;12421;49.732;20.078;2023-04-09T09:18:36;97506.85;;;12.51;62.94
24302;BME280;12421;49.732;20.078;2023-04-09T10:02:33;97502.63;;;12.30;60.76
24302;BME280;12421;49.732;20.078;2023-04-09T10:35:11;97499.56;;;11.31;61.73
24302;BME280;12421;49.732;20.078;2023-04-09T11:19:47;97487.09;;;11.30;61.66
24302;BME280;12421;49.732;20.078;2023-04-09T11:30:34;97486.58;;;11.26;61.28
24302;BME280;12421;49.732;20.078;2023-04-09T11:52:22;97483.33;;;12.02;60.68
24302;BME280;12421;49.732;20.078;2023-04-09T12:25:57;97496.90;;;12.20;57.89
24302;BME280;12421;49.732;20.078;2023-04-09T13:43:02;97486.45;;;9.75;65.69
24302;BME280;12421;49.732;20.078;2023-04-09T13:53:37;97484.50;;;9.55;68.12
24302;BME280;12421;49.732;20.078;2023-04-09T14:15:29;97471.39;;;10.20;69.43
24302;BME280;12421;49.732;20.078;2023-04-09T15:12:04;97443.80;;;11.04;64.07
24302;BME280;12421;49.732;20.078;2023-04-09T15:22:07;97442.03;;;11.06;63.70
24302;BME280;12421;49.732;20.078;2023-04-09T15:32:10;97437.41;;;11.16;63.16
24302;BME280;12421;49.732;20.078;2023-04-09T15:42:47;97439.74;;;11.08;62.69
24302;BME280;12421;49.732;20.078;2023-04-09T15:52:55;97442.59;;;11.02;63.66
24302;BME280;12421;49.732;20.078;2023-04-09T16:02:58;97442.55;;;11.08;64.91
24302;BME280;12421;49.732;20.078;2023-04-09T16:13:35;97441.43;;;10.81;64.66
24302;BME280;12421;49.732;20.078;2023-04-09T16:23:43;97444.67;;;10.51;66.06
24302;BME280;12421;49.732;20.078;2023-04-09T16:33:47;97442.10;;;10.23;66.92
24302;BME280;12421;49.732;20.078;2023-04-09T16:43:50;97446.48;;;9.93;67.05
24302;BME280;12421;49.732;20.078;2023-04-09T16:53:54;97453.45;;;9.46;67.78
24302;BME280;12421;49.732;20.078;2023-04-09T17:03:57;97463.81;;;8.95;68.57
24302;BME280;12421;49.732;20.078;2023-04-09T17:14:03;97476.02;;;8.51;69.27
24302;BME280;12421;49.732;20.078;2023-04-09T17:24:06;97479.80;;;7.96;69.93
24302;BME280;12421;49.732;20.078;2023-04-09T17:34:11;97487.42;;;7.34;71.02
24302;BME280;12421;49.732;20.078;2023-04-09T17:44:15;97501.97;;;6.80;72.11
24302;BME280;12421;49.732;20.078;2023-04-09T17:54:19;97516.81;;;6.42;72.95
24302;BME280;12421;49.732;20.078;2023-04-09T18:04:23;97522.33;;;6.05;73.38
24302;BME280;12421;49.732;20.078;2023-04-09T18:14:32;97536.23;;;5.64;74.37
24302;BME280;12421;49.732;20.078;2023-04-09T18:24:35;97544.98;;;5.38;75.01
24302;BME280;12421;49.732;20.078;2023-04-09T18:34:38;97555.60;;;5.20;75.80
24302;BME280;12421;49.732;20.078;2023-04-09T18:44:41;97562.86;;;5.18;76.54
24302;BME280;12421;49.732;20.078;2023-04-09T18:54:45;97578.42;;;5.30;76.98
24302;BME280;12421;49.732;20.078;2023-04-09T19:04:50;97584.66;;;5.37;76.87
24302;BME280;12421;49.732;20.078;2023-04-09T19:14:54;97588.77;;;5.34;77.03
24302;BME280;12421;49.732;20.078;2023-04-09T19:24:57;97593.15;;;5.35;77.44
24302;BME280;12421;49.732;20.078;2023-04-09T19:35:01;97593.23;;;5.30;77.82
24302;BME280;12421;49.732;20.078;2023-04-09T19:45:04;97596.37;;;5.22;78.04
24302;BME280;12421;49.732;20.078;2023-04-09T19:55:08;97587.83;;;5.23;78.48
24302;BME280;12421;49.732;20.078;2023-04-09T20:05:12;97589.80;;;5.24;78.49
24302;BME280;12421;49.732;20.078;2023-04-09T20:15:16;97592.69;;;5.28;78.57
24302;BME280;12421;49.732;20.078;2023-04-09T20:25:23;97593.30;;;5.25;78.56
24302;BME280;12421;49.732;20.078;2023-04-09T20:35:27;97592.59;;;5.24;78.47
24302;BME280;12421;49.732;20.078;2023-04-09T20:45:30;97589.50;;;5.10;78.87
24302;BME280;12421;49.732;20.078;2023-04-09T20:55:34;97587.00;;;5.07;79.01
24302;BME280;12421;49.732;20.078;2023-04-09T21:05:38;97584.23;;;5.16;78.85
24302;BME280;12421;49.732;20.078;2023-04-09T21:15:42;97587.33;;;5.06;78.60
24302;BME280;12421;49.732;20.078;2023-04-09T21:25:45;97593.19;;;4.88;78.84
24302;BME280;12421;49.732;20.078;2023-04-09T21:35:51;97596.65;;;4.64;78.77
24302;BME280;12421;49.732;20.078;2023-04-09T21:45:55;97599.38;;;4.69;79.30
24302;BME280;12421;49.732;20.078;2023-04-09T21:56:32;97604.59;;;4.61;79.31
24302;BME280;12421;49.732;20.078;2023-04-09T22:06:36;97606.23;;;4.49;79.31
24302;BME280;12421;49.732;20.078;2023-04-09T22:16:40;97610.45;;;4.37;79.40
24302;BME280;12421;49.732;20.078;2023-04-09T22:26:45;97612.90;;;4.16;79.21
24302;BME280;12421;49.732;20.078;2023-04-09T22:36:48;97611.12;;;4.08;79.28
24302;BME280;12421;49.732;20.078;2023-04-09T22:46:52;97613.20;;;3.88;79.26
24302;BME280;12421;49.732;20.078;2023-04-09T22:56:56;97614.71;;;3.73;79.34
24302;BME280;12421;49.732;20.078;2023-04-09T23:07:00;97612.91;;;3.58;79.27
24302;BME280;12421;49.732;20.078;2023-04-09T23:17:37;97610.63;;;3.38;79.05
24302;BME280;12421;49.732;20.078;2023-04-09T23:27:41;97615.83;;;3.01;79.10
24302;BME280;12421;49.732;20.078;2023-04-09T23:37:45;97613.48;;;2.80;79.88
24302;BME280;12421;49.732;20.078;2023-04-09T23:47:50;97607.54;;;2.62;79.99
24302;BME280;12421;49.732;20.078;2023-04-09T23:57:56;97604.83;;;2.42;80.14
